Terminal Aerodrome Forecast
Issued by NWS

Home | Current Version | Previous Version | Text Only | Print | Product List | Glossary On
Versions: 1 2 3 4 5 6 7 8 9 10 11 12 13 14 15 16 17 18 19 20 21
000
FTUS43 KGRR 250000 AAB
TAFJXN
TAF AMD
KJXN 250052Z 2501/2524 27015G19KT 1 1/2SM -SN BR BKN006 OVC010
     FM250200 29007KT 3SM -RASN BR OVC004
     FM250300 28010KT 2SM -SN BR OVC004
     FM250500 27014KT 4SM -SN BR OVC007
     FM250800 25013KT P6SM OVC012
     FM251400 24011KT P6SM OVC025
     FM252100 21009KT P6SM FEW250=

USA.gov is the U.S. government's official web portal to all federal, state and local government web resources and services.